Time;durP1;ratioP1;P1;durP2;ratioP2;P2;SDS_P1;SDS_P2;PMS_P1;PMS_P2;Temp;Humidity;BMP_temperature;BMP_pressure;BME280_temperature;BME280_humidity;BME280_pressure;Samples;Min_cycle;Max_cycle;Signal;HPM_P1;HPM_P2
2023/08/06 00:00:42;;;;;;;2.80;2.60;;;21.10;76.50;20.50;95744.00;;;;5042709;28;20212;-81
2023/08/06 00:03:09;;;;;;;2.93;2.73;;;21.20;76.50;20.50;95747.00;;;;5028259;28;20213;-81
2023/08/06 00:05:38;;;;;;;3.00;2.53;;;21.10;76.40;20.50;95747.00;;;;5048530;28;20211;-80
2023/08/06 00:08:05;;;;;;;2.93;2.27;;;21.10;76.70;20.50;95747.00;;;;5049580;28;20224;-81
2023/08/06 00:10:32;;;;;;;2.50;2.30;;;21.10;76.40;20.50;95748.00;;;;5054469;28;20592;-81
2023/08/06 00:13:00;;;;;;;2.53;2.33;;;21.10;76.30;20.50;95750.00;;;;5050714;28;20201;-81
2023/08/06 00:15:27;;;;;;;2.73;2.53;;;21.20;76.30;20.50;95751.00;;;;5053229;28;20220;-81
2023/08/06 00:17:54;;;;;;;2.40;2.20;;;21.20;76.30;20.50;95756.00;;;;5052602;28;20206;-81
2023/08/06 00:20:21;;;;;;;2.27;2.07;;;21.10;76.30;20.40;95762.00;;;;5055192;28;20196;-81
2023/08/06 00:22:50;;;;;;;2.10;2.00;;;21.10;76.10;20.40;95758.00;;;;5055925;28;20203;-81
2023/08/06 00:25:19;;;;;;;2.13;1.93;;;21.10;76.00;20.40;95756.00;;;;5045468;28;20225;-81
2023/08/06 00:27:46;;;;;;;2.13;2.03;;;21.10;75.90;20.40;95754.00;;;;5042320;28;20205;-81
2023/08/06 00:30:14;;;;;;;1.77;1.67;;;21.10;76.10;20.40;95756.00;;;;5051590;28;20581;-81
2023/08/06 00:32:41;;;;;;;2.57;2.10;;;21.10;76.10;20.40;95757.00;;;;5049266;28;20193;-80
2023/08/06 00:35:09;;;;;;;1.97;1.87;;;21.10;76.10;20.40;95761.00;;;;5047172;28;20216;-80
2023/08/06 00:37:36;;;;;;;2.60;2.00;;;21.10;76.20;20.40;95761.00;;;;5055276;28;20279;-81
2023/08/06 00:40:07;;;;;;;2.27;2.17;;;21.10;76.00;20.40;95759.00;;;;5055776;28;20205;-80
2023/08/06 00:42:35;;;;;;;2.53;1.90;;;21.10;75.80;20.40;95759.00;;;;5055827;28;20677;-82
2023/08/06 00:45:02;;;;;;;1.90;1.80;;;21.00;75.70;20.40;95746.00;;;;5055192;28;20216;-81
2023/08/06 00:47:30;;;;;;;1.80;1.70;;;21.00;75.70;20.30;95749.00;;;;5054686;28;20298;-81
2023/08/06 00:49:59;;;;;;;1.60;1.50;;;21.00;75.40;20.30;95751.00;;;;5055587;28;20227;-81
2023/08/06 00:52:27;;;;;;;2.10;1.90;;;21.00;75.50;20.30;95744.00;;;;5056052;28;20197;-81
2023/08/06 00:54:54;;;;;;;1.80;1.70;;;21.00;75.80;20.30;95746.00;;;;5050366;28;20230;-82
2023/08/06 00:57:26;;;;;;;1.90;1.80;;;21.00;75.80;20.30;95734.00;;;;5054278;28;20958;-82
2023/08/06 00:59:55;;;;;;;1.60;1.50;;;21.00;75.70;20.20;95725.00;;;;5023243;28;20263;-82
2023/08/06 01:02:22;;;;;;;1.40;1.30;;;21.00;75.50;20.20;95722.00;;;;5044896;28;20200;-82
2023/08/06 01:04:49;;;;;;;1.67;1.50;;;20.90;75.60;20.20;95722.00;;;;5053925;28;20221;-82
2023/08/06 01:07:49;;;;;;;1.40;1.30;;;20.90;75.90;20.10;95725.00;;;;5035197;28;20201;-82
2023/08/06 01:10:39;;;;;;;1.53;1.43;;;20.80;76.00;20.00;95717.00;;;;5048571;28;20882;-82
2023/08/06 01:13:23;;;;;;;1.67;1.40;;;20.80;76.30;20.00;95719.00;;;;5040599;28;20196;-82
2023/08/06 01:15:56;;;;;;;2.10;1.37;;;20.80;76.10;20.00;95721.00;;;;5047553;28;20299;-82
2023/08/06 01:18:24;;;;;;;1.50;1.40;;;20.80;76.00;19.90;95723.00;;;;5043432;28;20225;-82
2023/08/06 01:20:53;;;;;;;1.70;1.60;;;20.70;76.70;19.90;95731.00;;;;5039854;28;20208;-82
2023/08/06 01:23:21;;;;;;;1.73;1.63;;;20.70;75.60;19.90;95722.00;;;;5050922;28;20205;-83
2023/08/06 01:26:00;;;;;;;1.60;1.50;;;20.60;75.50;19.80;95725.00;;;;5048213;28;20227;-84
2023/08/06 01:28:38;;;;;;;1.77;1.67;;;20.60;75.80;19.70;95728.00;;;;5052778;28;20201;-82
2023/08/06 01:31:11;;;;;;;1.73;1.63;;;20.60;76.00;19.70;95722.00;;;;5054018;28;20201;-82
2023/08/06 01:33:47;;;;;;;2.07;1.97;;;20.50;76.10;19.70;95721.00;;;;5045502;28;20198;-82
2023/08/06 01:36:18;;;;;;;1.90;1.80;;;20.50;76.50;19.70;95720.00;;;;5055517;28;20198;-82
2023/08/06 01:38:46;;;;;;;2.60;1.80;;;20.40;76.70;19.60;95724.00;;;;5054537;28;20192;-82
2023/08/06 01:41:13;;;;;;;2.00;1.90;;;20.40;76.70;19.60;95725.00;;;;5053362;28;20633;-83
2023/08/06 01:43:41;;;;;;;2.23;2.10;;;20.40;76.90;19.60;95725.00;;;;5039829;28;20279;-83
2023/08/06 01:46:08;;;;;;;1.87;1.77;;;20.30;77.00;19.60;95725.00;;;;5048596;28;20612;-82
2023/08/06 01:48:35;;;;;;;2.07;1.97;;;20.30;77.10;19.50;95717.00;;;;5051392;28;20216;-83
2023/08/06 01:51:05;;;;;;;2.20;2.00;;;20.30;77.20;19.50;95717.00;;;;5052779;28;20284;-83
2023/08/06 01:53:34;;;;;;;2.83;2.30;;;20.30;77.30;19.50;95714.00;;;;5019003;28;20200;-82
2023/08/06 01:56:02;;;;;;;2.20;2.10;;;20.30;77.30;19.50;95714.00;;;;5052917;28;20209;-82
2023/08/06 01:58:29;;;;;;;2.57;2.37;;;20.20;77.30;19.50;95709.00;;;;5052844;28;20196;-82
2023/08/06 02:00:56;;;;;;;2.60;2.40;;;20.20;77.30;19.50;95715.00;;;;5057157;28;20212;-83
2023/08/06 02:03:23;;;;;;;2.90;2.70;;;20.20;77.40;19.50;95711.00;;;;5046875;28;20201;-82
2023/08/06 02:05:50;;;;;;;2.33;2.10;;;20.20;77.70;19.40;95709.00;;;;5054909;28;20220;-82
2023/08/06 02:08:17;;;;;;;2.80;2.60;;;20.20;77.90;19.50;95718.00;;;;5050945;28;20219;-82
2023/08/06 02:10:47;;;;;;;2.53;2.43;;;20.20;77.90;19.40;95728.00;;;;5052287;28;20233;-82
2023/08/06 02:13:15;;;;;;;2.20;2.10;;;20.20;78.00;19.40;95715.00;;;;5050729;28;20571;-82
2023/08/06 02:15:45;;;;;;;2.73;2.53;;;20.20;77.90;19.40;95715.00;;;;5038827;28;20926;-81
2023/08/06 02:18:12;;;;;;;2.87;2.67;;;20.20;78.00;19.40;95707.00;;;;5053400;28;20199;-82
2023/08/06 02:20:39;;;;;;;2.63;2.43;;;20.20;78.10;19.40;95695.00;;;;5048902;28;20236;-82
2023/08/06 02:23:08;;;;;;;2.90;2.70;;;20.10;78.20;19.40;95706.00;;;;5049551;28;20204;-82
2023/08/06 02:25:37;;;;;;;2.97;2.77;;;20.10;78.20;19.40;95707.00;;;;5055464;28;20613;-81
2023/08/06 02:28:06;;;;;;;2.60;2.40;;;20.10;78.20;19.40;95707.00;;;;5054779;28;20659;-81
2023/08/06 02:30:33;;;;;;;2.43;2.33;;;20.20;78.50;19.40;95700.00;;;;5047785;28;20227;-82
2023/08/06 02:33:01;;;;;;;2.50;2.30;;;20.20;78.40;19.40;95692.00;;;;5058546;28;20192;-81
2023/08/06 02:35:28;;;;;;;2.37;2.00;;;20.20;78.40;19.40;95695.00;;;;5050135;28;20704;-81
2023/08/06 02:37:55;;;;;;;2.40;2.20;;;20.20;78.10;19.40;95691.00;;;;5041423;28;20212;-80
2023/08/06 02:40:22;;;;;;;2.23;2.13;;;20.20;78.00;19.40;95692.00;;;;5055844;28;20284;-82
2023/08/06 02:42:50;;;;;;;2.37;2.23;;;20.20;78.00;19.40;95684.00;;;;5050006;28;20206;-82
2023/08/06 02:45:19;;;;;;;2.20;2.10;;;20.20;78.10;19.40;95684.00;;;;5034231;28;20309;-83
2023/08/06 02:47:46;;;;;;;2.30;2.20;;;20.10;78.10;19.40;95680.00;;;;5052372;28;20200;-83
2023/08/06 02:50:14;;;;;;;2.53;2.30;;;20.10;78.00;19.40;95669.00;;;;5051433;28;20221;-83
2023/08/06 02:52:41;;;;;;;2.23;2.10;;;20.10;78.00;19.40;95667.00;;;;5052303;28;20210;-84
2023/08/06 02:55:09;;;;;;;1.80;1.70;;;20.10;78.00;19.30;95661.00;;;;5051842;28;20724;-83
2023/08/06 02:57:36;;;;;;;2.20;2.10;;;20.10;78.00;19.30;95659.00;;;;5044725;28;20189;-83
2023/08/06 03:00:04;;;;;;;2.20;2.10;;;20.10;78.10;19.30;95663.00;;;;5034806;28;20205;-82
2023/08/06 03:02:33;;;;;;;2.33;2.20;;;20.10;78.20;19.30;95656.00;;;;5044045;28;20626;-83
2023/08/06 03:05:00;;;;;;;1.90;1.80;;;20.10;78.20;19.30;95656.00;;;;5043520;28;20719;-82
2023/08/06 03:07:28;;;;;;;2.07;1.90;;;20.00;78.20;19.30;95643.00;;;;5032677;28;20249;-83
2023/08/06 03:09:55;;;;;;;2.33;2.20;;;20.00;78.20;19.20;95642.00;;;;5038101;28;20218;-82
2023/08/06 03:12:22;;;;;;;2.00;1.90;;;20.00;78.30;19.30;95631.00;;;;5056168;28;20633;-83
2023/08/06 03:14:50;;;;;;;1.83;1.73;;;20.00;78.30;19.20;95637.00;;;;5055557;28;20212;-82
2023/08/06 03:17:17;;;;;;;1.80;1.70;;;20.00;78.30;19.20;95638.00;;;;5056155;28;20569;-83
2023/08/06 03:19:46;;;;;;;2.03;1.90;;;20.00;78.20;19.20;95640.00;;;;5057089;28;20205;-83
2023/08/06 03:22:13;;;;;;;2.00;1.90;;;20.00;78.30;19.20;95645.00;;;;5038647;28;20198;-82
2023/08/06 03:24:40;;;;;;;2.33;1.87;;;20.00;78.20;19.20;95647.00;;;;5038596;28;20217;-82
2023/08/06 03:27:08;;;;;;;2.80;1.80;;;20.00;78.20;19.20;95640.00;;;;5057113;28;20204;-82
2023/08/06 03:29:35;;;;;;;2.20;1.60;;;19.90;78.00;19.10;95646.00;;;;5057191;28;20224;-82
2023/08/06 03:32:02;;;;;;;1.80;1.70;;;19.90;77.90;19.10;95646.00;;;;5057753;28;20215;-83
2023/08/06 03:34:29;;;;;;;2.00;1.90;;;19.90;77.90;19.10;95646.00;;;;5057806;28;20252;-83
2023/08/06 03:36:58;;;;;;;2.03;1.83;;;19.90;77.90;19.10;95641.00;;;;5050201;28;20592;-82
2023/08/06 03:39:25;;;;;;;2.27;2.07;;;19.90;78.00;19.10;95645.00;;;;5058330;28;20733;-82
2023/08/06 03:41:52;;;;;;;4.57;2.00;;;19.90;78.00;19.10;95644.00;;;;5059142;28;20203;-81
2023/08/06 03:44:20;;;;;;;2.63;2.27;;;19.90;78.00;19.10;95643.00;;;;5049292;28;20710;-83
2023/08/06 03:46:47;;;;;;;2.87;2.10;;;19.80;77.90;19.10;95645.00;;;;5033695;28;20208;-82
2023/08/06 03:49:14;;;;;;;2.20;2.00;;;19.80;77.80;19.00;95638.00;;;;5048535;28;20235;-81
2023/08/06 03:51:42;;;;;;;2.27;2.07;;;19.80;77.80;19.00;95633.00;;;;5051592;28;20209;-83
2023/08/06 03:54:10;;;;;;;1.63;1.53;;;19.80;77.90;19.00;95635.00;;;;5058348;28;20308;-83
2023/08/06 03:56:38;;;;;;;1.90;1.80;;;19.80;77.70;19.00;95630.00;;;;5053348;28;20199;-82
2023/08/06 03:59:05;;;;;;;1.83;1.70;;;19.80;77.60;19.00;95626.00;;;;5062359;28;20201;-81
2023/08/06 04:01:32;;;;;;;2.00;1.90;;;19.70;77.80;19.00;95628.00;;;;5052589;28;20295;-82
2023/08/06 04:03:59;;;;;;;2.13;2.03;;;19.70;77.90;19.00;95634.00;;;;5057314;28;20223;-81
2023/08/06 04:06:27;;;;;;;1.87;1.77;;;19.70;77.80;18.90;95631.00;;;;5057501;28;20742;-83
2023/08/06 04:08:54;;;;;;;2.40;2.20;;;19.70;77.80;18.90;95629.00;;;;5047118;28;20251;-83
2023/08/06 04:11:23;;;;;;;2.13;2.00;;;19.70;77.80;18.90;95632.00;;;;5061089;28;20664;-82
2023/08/06 04:13:50;;;;;;;1.93;1.83;;;19.70;78.60;18.90;95631.00;;;;5060061;28;20223;-81
2023/08/06 04:16:17;;;;;;;1.70;1.60;;;19.70;77.90;18.90;95635.00;;;;5060247;28;20193;-83
2023/08/06 04:18:45;;;;;;;1.70;1.60;;;19.70;77.90;18.90;95636.00;;;;5060304;28;20284;-80
2023/08/06 04:21:12;;;;;;;2.43;2.33;;;19.70;77.90;18.90;95642.00;;;;5048058;28;20207;-83
2023/08/06 04:23:39;;;;;;;1.87;1.77;;;19.60;77.90;18.90;95639.00;;;;5047706;28;20288;-83
2023/08/06 04:26:07;;;;;;;2.13;1.60;;;19.70;78.00;18.80;95648.00;;;;5052868;28;20298;-83
2023/08/06 04:28:35;;;;;;;2.00;1.70;;;19.60;77.90;18.80;95638.00;;;;5042340;28;20228;-81
2023/08/06 04:31:03;;;;;;;1.60;1.50;;;19.60;77.90;18.80;95645.00;;;;5057956;28;20224;-83
2023/08/06 04:33:30;;;;;;;1.53;1.43;;;19.60;77.90;18.80;95641.00;;;;5062637;28;20196;-83
2023/08/06 04:35:58;;;;;;;1.80;1.70;;;19.60;77.80;18.80;95639.00;;;;5061045;28;20261;-82
2023/08/06 04:38:26;;;;;;;1.43;1.33;;;19.60;77.90;18.80;95640.00;;;;5054140;28;20205;-82
2023/08/06 04:40:54;;;;;;;1.93;1.70;;;19.60;77.80;18.80;95635.00;;;;5063778;28;20268;-82
2023/08/06 04:43:21;;;;;;;1.90;1.73;;;19.60;77.80;18.80;95632.00;;;;5063151;28;20252;-82
2023/08/06 04:45:51;;;;;;;2.00;1.90;;;19.60;77.80;18.80;95632.00;;;;5063420;28;20753;-83
2023/08/06 04:48:19;;;;;;;1.80;1.70;;;19.60;77.80;18.80;95619.00;;;;5048231;28;20408;-82
2023/08/06 04:50:46;;;;;;;1.40;1.30;;;19.60;77.90;18.80;95623.00;;;;5058127;28;20252;-82
2023/08/06 04:53:14;;;;;;;1.77;1.67;;;19.60;78.00;18.80;95626.00;;;;5061166;28;20209;-82
2023/08/06 04:55:41;;;;;;;1.57;1.47;;;19.60;78.80;18.80;95637.00;;;;5060376;28;20303;-82
2023/08/06 04:58:10;;;;;;;2.30;2.07;;;19.60;78.10;18.80;95630.00;;;;5060972;28;20635;-81
2023/08/06 05:00:37;;;;;;;1.70;1.60;;;19.60;77.90;18.80;95630.00;;;;5055184;28;20208;-82
2023/08/06 05:03:07;;;;;;;2.43;2.00;;;19.60;77.70;18.80;95623.00;;;;5057446;28;20188;-82
2023/08/06 05:05:34;;;;;;;1.90;1.80;;;19.60;77.80;18.80;95627.00;;;;5051616;28;20292;-82
2023/08/06 05:08:02;;;;;;;1.47;1.37;;;19.60;77.70;18.80;95625.00;;;;5044717;28;20556;-82
2023/08/06 05:10:29;;;;;;;1.43;1.33;;;19.60;77.70;18.80;95623.00;;;;5036010;28;20227;-83
2023/08/06 05:12:56;;;;;;;1.63;1.30;;;19.50;77.80;18.80;95630.00;;;;5050673;28;20290;-83
2023/08/06 05:15:25;;;;;;;1.60;1.50;;;19.60;78.00;18.80;95633.00;;;;5042211;28;20222;-82
2023/08/06 05:17:52;;;;;;;1.50;1.40;;;19.60;77.90;18.90;95632.00;;;;5048170;28;20205;-82
2023/08/06 05:20:21;;;;;;;2.67;1.47;;;19.60;78.20;18.90;95637.00;;;;5055099;28;20204;-82
2023/08/06 05:22:49;;;;;;;1.07;1.07;;;19.60;78.20;19.00;95638.00;;;;5054168;28;20288;-81
2023/08/06 05:25:16;;;;;;;1.33;1.23;;;19.60;77.90;19.00;95638.00;;;;5050522;28;20295;-82
2023/08/06 05:27:43;;;;;;;1.33;1.23;;;19.70;78.10;19.00;95639.00;;;;5039979;28;20197;-81
2023/08/06 05:30:12;;;;;;;1.07;1.00;;;19.70;78.20;19.10;95646.00;;;;5060476;28;20764;-80
2023/08/06 05:32:39;;;;;;;1.90;1.00;;;19.70;78.00;19.10;95640.00;;;;5063495;28;20380;-81
2023/08/06 05:35:07;;;;;;;1.10;1.10;;;19.80;78.10;19.10;95646.00;;;;5061341;28;20728;-80
2023/08/06 05:37:36;;;;;;;1.00;1.00;;;19.80;78.10;19.20;95639.00;;;;5046988;28;20203;-80
2023/08/06 05:40:04;;;;;;;1.77;1.30;;;19.80;78.00;19.20;95637.00;;;;5060157;28;20296;-79
2023/08/06 05:42:31;;;;;;;1.83;1.20;;;19.90;78.00;19.20;95639.00;;;;5062443;28;20204;-80
2023/08/06 05:44:58;;;;;;;1.60;1.07;;;19.90;78.20;19.30;95636.00;;;;5045056;28;20220;-81
2023/08/06 05:47:25;;;;;;;1.40;1.30;;;19.90;78.00;19.30;95639.00;;;;5061477;28;20204;-81
2023/08/06 05:49:53;;;;;;;1.20;1.10;;;20.00;77.70;19.30;95639.00;;;;5059399;28;20203;-81
2023/08/06 05:52:20;;;;;;;1.03;0.93;;;20.00;77.60;19.30;95636.00;;;;5051995;28;20210;-81
2023/08/06 05:54:48;;;;;;;1.20;1.10;;;20.00;77.40;19.30;95637.00;;;;5059230;28;20219;-80
2023/08/06 05:57:16;;;;;;;1.03;0.97;;;20.00;77.20;19.40;95640.00;;;;5058570;28;20196;-81
2023/08/06 05:59:44;;;;;;;1.17;1.07;;;20.10;77.10;19.40;95636.00;;;;5030181;28;20203;-81
2023/08/06 06:02:11;;;;;;;0.97;0.97;;;20.10;77.10;19.40;95632.00;;;;5049720;28;20208;-81
2023/08/06 06:04:39;;;;;;;1.50;0.97;;;20.10;77.10;19.40;95644.00;;;;5058768;28;20752;-81
2023/08/06 06:07:06;;;;;;;1.37;0.97;;;20.10;77.00;19.40;95640.00;;;;5061138;28;20287;-81
2023/08/06 06:09:33;;;;;;;1.30;1.10;;;20.10;77.00;19.40;95634.00;;;;5065652;28;20243;-81
2023/08/06 06:12:02;;;;;;;0.90;0.90;;;20.10;77.70;19.40;95638.00;;;;5044967;28;20305;-80
2023/08/06 06:14:29;;;;;;;1.33;1.23;;;20.10;76.90;19.40;95639.00;;;;5060653;28;20219;-80
2023/08/06 06:16:56;;;;;;;1.33;1.23;;;20.10;76.90;19.40;95640.00;;;;5054892;28;20204;-81
2023/08/06 06:19:24;;;;;;;1.13;1.03;;;20.20;76.80;19.50;95643.00;;;;5065131;28;20651;-81
2023/08/06 06:21:51;;;;;;;0.90;0.90;;;20.20;76.80;19.50;95641.00;;;;5063760;28;20228;-81
2023/08/06 06:24:19;;;;;;;1.50;1.30;;;20.10;76.70;19.50;95642.00;;;;5027706;28;20226;-83
2023/08/06 06:26:46;;;;;;;1.40;1.30;;;20.20;76.90;19.50;95646.00;;;;5049991;28;20579;-81
2023/08/06 06:29:14;;;;;;;1.47;1.17;;;20.20;76.90;19.50;95639.00;;;;5066210;28;20665;-81
2023/08/06 06:31:42;;;;;;;2.90;1.30;;;20.20;76.80;19.50;95639.00;;;;5063761;28;20280;-81
2023/08/06 06:34:09;;;;;;;1.10;1.00;;;20.20;76.60;19.60;95649.00;;;;5060832;28;20223;-80
2023/08/06 06:36:36;;;;;;;1.33;1.23;;;20.20;76.30;19.60;95642.00;;;;5056001;28;20286;-81
2023/08/06 06:39:03;;;;;;;1.20;1.10;;;20.30;76.20;19.60;95643.00;;;;5043716;28;20205;-81
2023/08/06 06:41:32;;;;;;;1.03;1.03;;;20.20;76.10;19.60;95641.00;;;;5064046;28;20650;-80
2023/08/06 06:44:00;;;;;;;1.10;1.00;;;20.20;76.20;19.60;95639.00;;;;5064620;28;20228;-81
2023/08/06 06:46:28;;;;;;;1.23;0.80;;;20.30;76.20;19.60;95639.00;;;;5066780;28;20789;-80
2023/08/06 06:48:56;;;;;;;1.30;1.20;;;20.30;76.20;19.60;95644.00;;;;5066398;28;20197;-81
2023/08/06 06:51:23;;;;;;;0.97;0.90;;;20.30;76.10;19.60;95642.00;;;;5061373;28;20312;-81
2023/08/06 06:53:50;;;;;;;1.33;1.20;;;20.30;75.90;19.60;95646.00;;;;5067146;28;20311;-81
2023/08/06 06:56:17;;;;;;;1.83;1.10;;;20.30;75.90;19.60;95640.00;;;;5068545;28;20201;-80
2023/08/06 06:58:45;;;;;;;0.87;0.87;;;20.30;75.90;19.60;95642.00;;;;5062987;28;20256;-81
2023/08/06 07:01:12;;;;;;;1.27;1.03;;;20.30;75.90;19.60;95643.00;;;;5063938;28;20212;-81
2023/08/06 07:03:41;;;;;;;0.97;0.93;;;20.30;75.90;19.60;95640.00;;;;5058198;28;20205;-81
2023/08/06 07:06:09;;;;;;;1.13;1.07;;;20.30;75.90;19.60;95639.00;;;;5051611;28;20201;-81
2023/08/06 07:08:36;;;;;;;1.13;1.03;;;20.30;75.80;19.60;95632.00;;;;5061565;28;20193;-81
2023/08/06 07:11:05;;;;;;;1.10;1.00;;;20.30;75.80;19.60;95630.00;;;;5064592;28;20275;-81
2023/08/06 07:13:33;;;;;;;1.07;0.90;;;20.30;75.60;19.60;95626.00;;;;5033377;28;20196;-81
2023/08/06 07:16:01;;;;;;;1.10;1.00;;;20.30;75.50;19.60;95626.00;;;;5065619;28;20222;-81
2023/08/06 07:18:28;;;;;;;1.10;1.10;;;20.30;75.60;19.70;95632.00;;;;5065929;28;20554;-82
2023/08/06 07:20:57;;;;;;;0.67;0.67;;;20.30;75.80;19.70;95630.00;;;;5029951;28;20202;-81
2023/08/06 07:23:26;;;;;;;1.03;0.93;;;20.30;75.70;19.70;95620.00;;;;5054758;28;20204;-82
2023/08/06 07:25:54;;;;;;;0.83;0.77;;;20.40;75.80;19.80;95617.00;;;;5062750;28;20222;-80
2023/08/06 07:28:22;;;;;;;1.37;0.83;;;20.40;76.00;19.80;95605.00;;;;5048968;28;20275;-81
2023/08/06 07:30:50;;;;;;;0.90;0.90;;;20.40;76.00;19.90;95616.00;;;;5062319;28;20225;-80
2023/08/06 07:33:18;;;;;;;1.90;0.90;;;20.50;75.80;19.90;95612.00;;;;5050111;28;20203;-82
2023/08/06 07:35:45;;;;;;;1.17;0.80;;;20.50;75.50;19.90;95613.00;;;;5046176;28;20262;-81
2023/08/06 07:38:14;;;;;;;0.70;0.70;;;20.60;75.30;19.90;95610.00;;;;5056303;28;20747;-81
2023/08/06 07:40:41;;;;;;;1.00;1.00;;;20.60;75.20;20.00;95610.00;;;;5050659;28;20239;-82
2023/08/06 07:43:09;;;;;;;0.83;0.83;;;20.60;75.20;20.10;95606.00;;;;5045793;28;20288;-81
2023/08/06 07:45:36;;;;;;;1.33;0.90;;;20.60;75.10;20.10;95602.00;;;;5054510;28;20219;-82
2023/08/06 07:48:05;;;;;;;0.63;0.63;;;20.70;75.20;20.20;95603.00;;;;5049599;28;20232;-79
2023/08/06 07:50:33;;;;;;;0.80;0.80;;;20.70;75.10;20.20;95599.00;;;;5050436;28;20296;-80
2023/08/06 07:53:00;;;;;;;0.67;0.67;;;20.80;75.10;20.30;95600.00;;;;5043720;28;20196;-84
2023/08/06 07:55:29;;;;;;;1.23;0.90;;;20.80;75.20;20.40;95598.00;;;;5046188;28;20213;-80
2023/08/06 07:57:56;;;;;;;0.50;0.50;;;20.90;75.30;20.40;95596.00;;;;5057132;28;20649;-81
2023/08/06 08:00:23;;;;;;;0.60;0.60;;;21.00;75.00;20.40;95599.00;;;;5056556;28;20283;-81
2023/08/06 08:02:52;;;;;;;0.47;0.47;;;21.00;74.60;20.50;95602.00;;;;5054404;28;20264;-80
2023/08/06 08:05:19;;;;;;;0.90;0.50;;;21.10;74.80;20.50;95596.00;;;;5060655;28;20307;-81
2023/08/06 08:07:46;;;;;;;0.60;0.60;;;21.10;74.30;20.60;95595.00;;;;5060071;28;20209;-80
2023/08/06 08:10:13;;;;;;;1.60;0.50;;;21.20;74.80;20.60;95597.00;;;;5062627;28;20200;-81
2023/08/06 08:12:42;;;;;;;0.37;0.37;;;21.20;74.90;20.70;95600.00;;;;5062803;28;20216;-81
2023/08/06 08:15:10;;;;;;;0.50;0.50;;;21.30;74.70;20.80;95608.00;;;;5061983;28;20674;-82
2023/08/06 08:17:37;;;;;;;3.03;0.60;;;21.30;74.60;20.90;95605.00;;;;5045889;28;20237;-80
2023/08/06 08:20:06;;;;;;;0.50;0.50;;;21.40;74.20;20.90;95606.00;;;;5051320;28;20280;-80
2023/08/06 08:22:34;;;;;;;0.83;0.30;;;21.50;73.30;21.00;95594.00;;;;5051816;28;20669;-81
2023/08/06 08:25:01;;;;;;;0.70;0.40;;;21.50;72.70;21.00;95608.00;;;;5054247;28;20590;-82
2023/08/06 08:27:29;;;;;;;0.30;0.30;;;21.60;72.10;21.00;95590.00;;;;5055138;28;20288;-79
2023/08/06 08:29:58;;;;;;;1.13;0.50;;;21.60;71.70;21.00;95589.00;;;;5054485;28;20203;-80
2023/08/06 08:32:25;;;;;;;0.40;0.30;;;21.60;71.20;21.10;95588.00;;;;5049775;28;20225;-81
2023/08/06 08:34:53;;;;;;;0.50;0.40;;;21.60;70.70;21.10;95585.00;;;;5037132;28;20591;-82
2023/08/06 08:37:20;;;;;;;0.80;0.50;;;21.60;70.30;21.00;95603.00;;;;5055932;28;20220;-82
2023/08/06 08:39:48;;;;;;;2.90;0.50;;;21.70;70.60;21.10;95596.00;;;;5055319;28;20658;-81
2023/08/06 08:42:16;;;;;;;0.40;0.37;;;21.70;70.40;21.10;95598.00;;;;5057380;28;20216;-81
2023/08/06 08:44:44;;;;;;;0.30;0.30;;;21.70;70.80;21.10;95604.00;;;;5053862;28;20220;-81
2023/08/06 08:47:16;;;;;;;0.20;0.20;;;21.70;69.70;21.10;95593.00;;;;5054462;28;20283;-80
2023/08/06 08:49:45;;;;;;;0.50;0.40;;;21.70;69.20;21.10;95597.00;;;;5056721;28;20223;-81
2023/08/06 08:52:14;;;;;;;0.90;0.50;;;21.70;68.80;21.10;95600.00;;;;5055331;28;20216;-81
2023/08/06 08:54:43;;;;;;;0.50;0.30;;;21.70;68.70;21.10;95603.00;;;;5056842;28;20212;-82
2023/08/06 08:57:10;;;;;;;0.40;0.40;;;21.70;68.90;21.00;95603.00;;;;5054226;28;20192;-82
2023/08/06 08:59:37;;;;;;;0.40;0.30;;;21.70;68.90;21.00;95606.00;;;;5056666;28;20204;-81
2023/08/06 09:02:10;;;;;;;0.50;0.37;;;21.70;69.10;21.00;95604.00;;;;5035104;28;20205;-81
2023/08/06 09:04:41;;;;;;;0.83;0.40;;;21.70;68.90;21.00;95614.00;;;;5039781;28;20237;-81
2023/08/06 09:07:14;;;;;;;0.80;0.50;;;21.60;68.60;21.00;95615.00;;;;5048905;28;20657;-81
2023/08/06 09:09:44;;;;;;;0.57;0.57;;;21.70;69.00;21.00;95617.00;;;;5054549;28;20582;-81
2023/08/06 09:12:16;;;;;;;0.70;0.40;;;21.70;68.90;21.10;95605.00;;;;5061410;28;20283;-81
2023/08/06 09:14:43;;;;;;;0.20;0.20;;;21.70;68.90;21.10;95605.00;;;;5052114;28;20301;-79
2023/08/06 09:17:11;;;;;;;0.30;0.30;;;21.70;69.20;21.20;95590.00;;;;5055430;28;20696;-81
2023/08/06 09:19:46;;;;;;;15.60;11.30;;;21.80;69.50;21.30;95599.00;;;;5057951;28;20189;-81
2023/08/06 09:22:14;;;;;;;0.50;0.50;;;21.80;69.60;21.40;95596.00;;;;5040056;28;20677;-81
2023/08/06 09:24:42;;;;;;;0.30;0.30;;;21.90;69.00;21.50;95606.00;;;;5057055;28;20216;-79
2023/08/06 09:27:13;;;;;;;0.30;0.30;;;22.00;68.70;21.50;95605.00;;;;5054484;28;20216;-82
2023/08/06 09:29:45;;;;;;;0.97;0.53;;;22.10;68.40;21.50;95612.00;;;;5057151;28;20193;-80
2023/08/06 09:32:13;;;;;;;0.33;0.30;;;22.10;67.60;21.50;95611.00;;;;5058493;28;20729;-78
2023/08/06 09:34:44;;;;;;;0.47;0.33;;;22.10;67.50;21.40;95617.00;;;;5051926;28;20690;-81
2023/08/06 09:37:11;;;;;;;0.50;0.20;;;22.10;67.90;21.40;95610.00;;;;5053329;28;20209;-82
2023/08/06 09:39:41;;;;;;;0.40;0.30;;;22.10;67.50;21.40;95617.00;;;;5069091;28;20201;-81
2023/08/06 09:42:08;;;;;;;0.20;0.20;;;22.10;67.50;21.50;95610.00;;;;5048021;28;20212;-80
2023/08/06 09:44:36;;;;;;;0.20;0.20;;;22.10;67.50;21.50;95615.00;;;;5053772;28;20258;-81
2023/08/06 09:47:04;;;;;;;0.30;0.30;;;22.10;67.60;21.50;95613.00;;;;5054553;28;20196;-81
2023/08/06 09:49:45;;;;;;;0.20;0.20;;;22.10;67.70;21.60;95601.00;;;;5060278;28;20205;-81
2023/08/06 09:52:15;;;;;;;0.17;0.17;;;22.10;66.40;21.60;95609.00;;;;5053179;28;20253;-81
2023/08/06 09:54:45;;;;;;;0.40;0.33;;;22.20;67.70;21.60;95616.00;;;;5059717;28;20278;-81
2023/08/06 09:57:14;;;;;;;0.30;0.30;;;22.20;68.10;21.70;95608.00;;;;5063737;28;20652;-81
2023/08/06 09:59:45;;;;;;;0.20;0.20;;;22.20;67.20;21.60;95615.00;;;;5055482;28;20211;-81
2023/08/06 10:02:15;;;;;;;1.17;0.17;;;22.20;66.70;21.60;95631.00;;;;5060997;28;20272;-82
2023/08/06 10:04:46;;;;;;;0.60;0.47;;;22.20;66.10;21.50;95638.00;;;;5052682;28;20217;-82
2023/08/06 10:07:13;;;;;;;0.20;0.20;;;22.20;66.70;21.30;95636.00;;;;5050781;28;20207;-83
2023/08/06 10:09:40;;;;;;;0.37;0.27;;;22.10;67.10;21.20;95632.00;;;;5047928;28;20211;-82
2023/08/06 10:12:09;;;;;;;0.27;0.13;;;22.00;67.50;21.00;95638.00;;;;5045602;28;20217;-83
2023/08/06 10:14:39;;;;;;;0.57;0.27;;;21.90;68.10;20.80;95636.00;;;;5042723;28;20236;-83
2023/08/06 10:17:07;;;;;;;0.83;0.13;;;21.70;68.60;20.60;95625.00;;;;5050900;28;20197;-82
2023/08/06 10:19:35;;;;;;;1.33;0.20;;;21.60;68.70;20.40;95621.00;;;;5044373;28;20194;-81
2023/08/06 10:22:16;;;;;;;0.40;0.10;;;21.50;69.20;20.30;95618.00;;;;5045190;28;20203;-82
2023/08/06 10:24:49;;;;;;;0.50;0.30;;;21.30;70.60;20.20;95621.00;;;;5032539;28;20297;-82
2023/08/06 10:27:22;;;;;;;0.30;0.20;;;21.20;71.00;20.20;95616.00;;;;5046799;28;20199;-81
2023/08/06 10:29:50;;;;;;;0.17;0.17;;;21.10;71.50;20.20;95613.00;;;;5046429;28;20235;-80
2023/08/06 10:32:18;;;;;;;0.37;0.20;;;21.00;72.00;20.10;95616.00;;;;5043951;28;20235;-81
2023/08/06 10:35:00;;;;;;;0.10;0.10;;;20.90;73.00;20.10;95619.00;;;;5050074;28;20705;-81
2023/08/06 10:37:37;;;;;;;0.10;0.10;;;20.90;74.40;20.10;95613.00;;;;5036168;28;20225;-80
2023/08/06 10:40:08;;;;;;;0.20;0.20;;;20.90;74.20;20.20;95626.00;;;;5038723;28;20279;-80
2023/08/06 10:42:35;;;;;;;0.60;0.20;;;20.90;75.00;20.40;95605.00;;;;5051197;28;20262;-80
2023/08/06 10:45:19;;;;;;;0.00;0.00;;;20.90;75.60;20.50;95627.00;;;;5041220;28;20718;-81
2023/08/06 10:47:46;;;;;;;0.00;0.00;;;21.10;76.60;20.60;95621.00;;;;5043856;28;20235;-81
2023/08/06 10:50:17;;;;;;;0.93;0.30;;;21.20;75.40;20.70;95613.00;;;;5045362;28;20196;-80
2023/08/06 10:52:47;;;;;;;0.27;0.20;;;21.20;74.50;20.80;95612.00;;;;5045732;28;20224;-80
2023/08/06 10:55:14;;;;;;;0.60;0.20;;;21.30;73.20;20.80;95627.00;;;;5047870;28;20725;-81
2023/08/06 10:57:42;;;;;;;0.77;0.20;;;21.40;72.40;20.80;95631.00;;;;5043901;28;20211;-81
2023/08/06 11:00:13;;;;;;;0.00;0.00;;;21.40;72.20;20.80;95618.00;;;;5050921;28;20260;-78